Terminal Aerodrome Forecast
Issued by NWS

Home | Current Version | Previous Version | Text Only | Print | Product List | Glossary On
Versions: 1 2 3 4 5 6 7 8 9 10 11 12 13 14 15 16 17 18 19 20 21 22 23 24 25 26 27 28 29 30 31 32
000
FTUS44 KLIX 190851 AAB
TAFHUM
TAF AMD
KHUM 190851Z 1909/2006 19005KT P6SM SCT015 BKN045
     FM191400 22006KT P6SM SCT015
     FM191800 23010KT P6SM SCT050
     FM200000 22009KT P6SM SCT200=

USA.gov is the U.S. government's official web portal to all federal, state and local government web resources and services.